Terminal Aerodrome Forecast
Issued by NWS Shreveport, LA

Home | Current Version | Previous Version | Text Only | Print | Product List | Glossary On
Versions: 1 2 3 4 5 6 7 8 9 10 11 12 13 14 15 16 17 18 19 20 21 22 23 24
000
FTUS44 KSHV 051700
TAFMLU
TAF
KMLU 051733Z 0518/0618 01015G24KT P6SM BKN024
      TEMPO 0518/0520 FEW025 SCT050
     FM052000 02012G20KT P6SM FEW050
     FM060000 02005KT P6SM SKC=

USA.gov is the U.S. government's official web portal to all federal, state and local government web resources and services.